createdAt,value
2022-12-25T00:01:32.470Z,36.40
2022-12-25T00:04:00.003Z,36.70
2022-12-25T00:06:27.282Z,39.70
2022-12-25T00:08:54.342Z,37.50
2022-12-25T00:11:21.399Z,35.90
2022-12-25T00:13:49.163Z,38.50
2022-12-25T00:16:19.303Z,39.00
2022-12-25T00:18:47.535Z,41.40
2022-12-25T00:21:17.917Z,40.80
2022-12-25T00:23:45.006Z,41.70
2022-12-25T00:26:15.230Z,39.50
2022-12-25T00:28:42.962Z,35.20
2022-12-25T00:31:15.109Z,39.50
2022-12-25T00:33:45.073Z,33.00
2022-12-25T00:36:14.886Z,30.90
2022-12-25T00:38:42.953Z,31.70
2022-12-25T00:41:43.236Z,28.30
2022-12-25T00:44:13.806Z,30.30
2022-12-25T00:46:42.607Z,32.90
2022-12-25T00:49:11.473Z,32.90
2022-12-25T00:51:38.567Z,28.40
2022-12-25T00:54:05.695Z,26.00
2022-12-25T00:56:32.643Z,30.60
2022-12-25T00:58:59.688Z,27.30
2022-12-25T01:01:26.791Z,27.70
2022-12-25T01:03:53.977Z,27.30
2022-12-25T01:06:20.924Z,27.50
2022-12-25T01:09:06.517Z,26.30
2022-12-25T01:11:33.577Z,27.60
2022-12-25T01:14:00.609Z,27.80
2022-12-25T01:16:28.434Z,33.10
2022-12-25T01:18:56.113Z,32.90
2022-12-25T01:21:23.592Z,30.70
2022-12-25T01:23:52.984Z,30.30
2022-12-25T01:26:23.214Z,30.60
2022-12-25T01:28:51.509Z,32.40
2022-12-25T01:31:22.673Z,31.10
2022-12-25T01:33:50.399Z,30.40
2022-12-25T01:36:23.586Z,29.20
2022-12-25T01:38:52.970Z,26.40
2022-12-25T01:41:23.525Z,30.40
2022-12-25T01:43:59.681Z,23.00
2022-12-25T01:46:26.925Z,25.70
2022-12-25T01:48:56.861Z,28.40
2022-12-25T01:51:46.698Z,26.00
2022-12-25T01:54:23.496Z,26.20
2022-12-25T01:56:52.980Z,30.40
2022-12-25T01:59:24.045Z,26.00
2022-12-25T02:01:51.594Z,29.10
2022-12-25T02:04:41.076Z,26.50
2022-12-25T02:07:21.947Z,27.20
2022-12-25T02:09:50.378Z,26.90
2022-12-25T02:12:30.258Z,25.20
2022-12-25T02:15:22.366Z,22.70
2022-12-25T02:18:13.011Z,23.40
2022-12-25T02:20:41.359Z,27.20
2022-12-25T02:23:38.641Z,28.80
2022-12-25T02:26:39.451Z,32.80
2022-12-25T02:29:33.774Z,29.10
2022-12-25T02:32:28.258Z,33.60
2022-12-25T02:35:16.191Z,24.80
2022-12-25T02:37:56.456Z,23.90
2022-12-25T02:40:30.878Z,25.20
2022-12-25T02:43:32.734Z,27.40
2022-12-25T02:46:24.291Z,27.60
2022-12-25T02:49:16.797Z,31.10
2022-12-25T02:52:09.140Z,29.80
2022-12-25T02:55:04.767Z,28.30
2022-12-25T02:57:56.694Z,37.00
2022-12-25T03:00:43.007Z,38.20
2022-12-25T03:03:31.815Z,38.30
2022-12-25T03:06:21.941Z,41.10
2022-12-25T03:08:54.375Z,39.70
2022-12-25T03:11:33.433Z,36.90
2022-12-25T03:14:26.595Z,29.90
2022-12-25T03:16:57.170Z,35.90
2022-12-25T03:19:48.753Z,39.80
2022-12-25T03:22:48.572Z,40.30
2022-12-25T03:25:36.089Z,33.90
2022-12-25T03:28:05.523Z,36.80
2022-12-25T03:31:08.317Z,34.00
2022-12-25T03:34:22.429Z,32.20
2022-12-25T03:37:18.477Z,29.40
2022-12-25T03:40:39.160Z,32.80
2022-12-25T03:44:02.838Z,33.60
2022-12-25T03:46:54.775Z,31.70
2022-12-25T03:49:50.892Z,36.10
2022-12-25T03:52:39.138Z,35.80
2022-12-25T03:55:30.260Z,37.10
2022-12-25T03:58:16.241Z,39.50
2022-12-25T04:01:01.651Z,37.70
2022-12-25T04:03:47.396Z,38.90
2022-12-25T04:06:33.088Z,39.20
2022-12-25T04:09:18.772Z,33.50
2022-12-25T04:12:04.559Z,32.80
2022-12-25T04:14:50.344Z,38.10
2022-12-25T04:17:36.142Z,34.60
2022-12-25T04:20:23.258Z,38.50
2022-12-25T04:23:08.834Z,32.30
2022-12-25T04:25:54.617Z,36.30
2022-12-25T04:28:50.642Z,35.90
2022-12-25T04:31:36.613Z,37.30
2022-12-25T04:34:22.423Z,36.50
2022-12-25T04:36:49.380Z,45.80
2022-12-25T04:39:16.314Z,37.20
2022-12-25T04:41:43.255Z,38.80
2022-12-25T04:44:10.301Z,37.30
2022-12-25T04:46:37.407Z,33.60
2022-12-25T04:49:04.403Z,29.80
2022-12-25T04:51:31.345Z,26.60
2022-12-25T04:53:58.529Z,31.10
2022-12-25T04:56:25.439Z,30.10
2022-12-25T04:58:52.379Z,34.60
2022-12-25T05:01:19.455Z,30.70
2022-12-25T05:03:46.519Z,31.80
2022-12-25T05:06:13.625Z,32.30
2022-12-25T05:08:40.669Z,30.60
2022-12-25T05:11:11.782Z,29.40
2022-12-25T05:13:39.171Z,26.30
2022-12-25T05:16:14.463Z,29.10
2022-12-25T05:18:41.660Z,23.30
2022-12-25T05:21:13.015Z,25.30
2022-12-25T05:23:48.683Z,26.20
2022-12-25T05:26:20.108Z,32.20
2022-12-25T05:28:47.152Z,32.20
2022-12-25T05:31:14.379Z,27.60
2022-12-25T05:33:41.664Z,27.00
2022-12-25T05:36:11.963Z,27.80
2022-12-25T05:38:39.622Z,35.40
2022-12-25T05:41:06.688Z,32.40
2022-12-25T05:43:33.742Z,33.00
2022-12-25T05:46:09.363Z,35.30
2022-12-25T05:48:38.378Z,30.70
2022-12-25T05:51:07.554Z,28.90
2022-12-25T05:53:35.764Z,29.30
2022-12-25T05:56:05.845Z,37.70
2022-12-25T05:58:37.040Z,32.20
2022-12-25T06:01:04.894Z,37.00
2022-12-25T06:03:31.993Z,36.20
2022-12-25T06:05:58.979Z,41.00
2022-12-25T06:08:25.923Z,37.50
2022-12-25T06:10:52.880Z,32.90
2022-12-25T06:13:19.923Z,34.40
2022-12-25T06:15:46.863Z,35.70
2022-12-25T06:18:13.915Z,31.70
2022-12-25T06:20:41.685Z,24.90
2022-12-25T06:23:08.852Z,26.50
2022-12-25T06:25:41.069Z,31.00
2022-12-25T06:28:08.347Z,24.00
2022-12-25T06:30:35.295Z,30.80
2022-12-25T06:33:02.333Z,22.90
2022-12-25T06:35:29.487Z,28.90
2022-12-25T06:37:56.835Z,36.40
2022-12-25T06:40:23.784Z,41.00
2022-12-25T06:42:52.237Z,41.10
2022-12-25T06:45:19.213Z,38.50
2022-12-25T06:47:46.177Z,37.00
2022-12-25T06:50:13.412Z,36.60
2022-12-25T06:52:40.353Z,37.80
2022-12-25T06:55:08.357Z,37.40
2022-12-25T06:57:35.267Z,35.30
2022-12-25T07:00:02.532Z,43.30
2022-12-25T07:02:29.986Z,39.50
2022-12-25T07:04:57.944Z,32.80
2022-12-25T07:07:24.888Z,37.50
2022-12-25T07:09:51.945Z,41.00
2022-12-25T07:12:23.733Z,48.10
2022-12-25T07:14:54.544Z,38.10
2022-12-25T07:17:23.111Z,51.60
2022-12-25T07:19:51.080Z,41.80
2022-12-25T07:22:18.419Z,39.90
2022-12-25T07:24:45.381Z,32.40
2022-12-25T07:27:12.325Z,32.00
2022-12-25T07:29:39.369Z,32.70
2022-12-25T07:32:06.528Z,37.00
2022-12-25T07:34:33.671Z,39.70
2022-12-25T07:37:00.626Z,40.80
2022-12-25T07:39:28.804Z,46.50
2022-12-25T07:41:55.846Z,44.50
2022-12-25T07:44:25.965Z,36.90
2022-12-25T07:46:52.909Z,37.10
2022-12-25T07:49:19.961Z,30.80
2022-12-25T07:51:46.906Z,34.90
2022-12-25T07:54:13.966Z,29.30
2022-12-25T07:56:40.897Z,36.70
2022-12-25T07:59:07.848Z,29.20
2022-12-25T08:01:35.064Z,33.20
2022-12-25T08:04:03.346Z,38.60
2022-12-25T08:06:34.190Z,37.30
2022-12-25T08:09:08.832Z,56.80
2022-12-25T08:11:37.322Z,41.90
2022-12-25T08:14:09.387Z,30.70
2022-12-25T08:16:36.487Z,30.50
2022-12-25T08:19:03.486Z,32.70
2022-12-25T08:21:30.439Z,28.70
2022-12-25T08:23:57.464Z,25.10
2022-12-25T08:26:24.613Z,29.40
2022-12-25T08:28:51.887Z,28.80
2022-12-25T08:31:24.404Z,27.70
2022-12-25T08:33:55.389Z,33.10
2022-12-25T08:36:23.688Z,26.70
2022-12-25T08:38:55.571Z,28.20
2022-12-25T08:41:25.849Z,30.70
2022-12-25T08:43:53.615Z,35.20
2022-12-25T08:46:20.966Z,32.10
2022-12-25T08:48:50.421Z,33.80
2022-12-25T08:51:22.441Z,34.00
2022-12-25T08:53:51.619Z,29.50
2022-12-25T08:56:20.167Z,29.90
2022-12-25T08:58:47.461Z,26.00
2022-12-25T09:01:14.910Z,29.40
2022-12-25T09:03:43.084Z,21.90
2022-12-25T09:06:16.133Z,30.60
2022-12-25T09:08:48.675Z,34.10
2022-12-25T09:11:18.795Z,33.90
2022-12-25T09:13:46.127Z,36.30
2022-12-25T09:16:18.090Z,29.30
2022-12-25T09:18:45.135Z,25.70
2022-12-25T09:21:14.856Z,31.60
2022-12-25T09:23:42.487Z,27.80
2022-12-25T09:26:14.883Z,29.00
2022-12-25T09:28:50.333Z,28.40
2022-12-25T09:31:19.303Z,30.40
2022-12-25T09:33:46.273Z,27.20
2022-12-25T09:36:13.333Z,25.50
2022-12-25T09:38:40.975Z,28.50
2022-12-25T09:41:51.851Z,28.40
2022-12-25T09:44:27.294Z,29.70
2022-12-25T09:47:02.743Z,28.50
2022-12-25T09:50:02.249Z,28.20
2022-12-25T09:52:36.361Z,29.20
2022-12-25T09:55:24.612Z,25.00
2022-12-25T09:57:58.732Z,34.20
2022-12-25T10:00:33.872Z,20.70
2022-12-25T10:03:15.922Z,23.20
2022-12-25T10:06:16.283Z,22.20
2022-12-25T10:09:17.634Z,27.30
2022-12-25T10:12:09.368Z,22.30
2022-12-25T10:15:16.755Z,20.10
2022-12-25T10:18:14.421Z,18.20
2022-12-25T10:20:50.279Z,18.50
2022-12-25T10:23:34.835Z,16.30
2022-12-25T10:26:02.291Z,16.00
2022-12-25T10:28:36.712Z,17.20
2022-12-25T10:31:18.223Z,16.30
2022-12-25T10:33:45.549Z,16.00
2022-12-25T10:36:14.346Z,15.00
2022-12-25T10:38:41.284Z,15.20
2022-12-25T10:41:55.303Z,11.60
2022-12-25T10:44:24.945Z,12.50
2022-12-25T10:46:59.766Z,12.10
2022-12-25T10:49:35.017Z,11.40
2022-12-25T10:52:04.019Z,16.10
2022-12-25T10:54:36.275Z,15.70
2022-12-25T10:57:09.259Z,17.20
2022-12-25T10:59:44.367Z,13.60
2022-12-25T11:02:28.148Z,14.80
2022-12-25T11:05:09.314Z,15.40
2022-12-25T11:07:46.925Z,12.30
2022-12-25T11:10:37.511Z,10.70
2022-12-25T11:13:19.401Z,14.10
2022-12-25T11:15:49.677Z,14.20
2022-12-25T11:18:32.493Z,12.60
2022-12-25T11:21:15.161Z,12.00
2022-12-25T11:23:49.579Z,11.90
2022-12-25T11:26:18.684Z,13.20
2022-12-25T11:28:46.440Z,12.90
2022-12-25T11:31:19.890Z,13.10
2022-12-25T11:33:56.476Z,13.60
2022-12-25T11:36:33.276Z,13.60
2022-12-25T11:39:14.866Z,11.40
2022-12-25T11:41:42.016Z,11.80
2022-12-25T11:44:35.180Z,9.80
2022-12-25T11:47:35.578Z,11.80
2022-12-25T11:50:24.421Z,8.50
2022-12-25T11:52:53.104Z,11.50
2022-12-25T11:55:55.008Z,10.00
2022-12-25T11:58:38.041Z,11.10
2022-12-25T12:01:33.928Z,9.90
2022-12-25T12:04:03.881Z,12.30
2022-12-25T12:06:30.931Z,11.70
2022-12-25T12:09:32.373Z,12.00
2022-12-25T12:12:30.576Z,14.00
2022-12-25T12:15:19.922Z,10.90
2022-12-25T12:17:46.865Z,10.00
2022-12-25T12:20:30.305Z,10.10
2022-12-25T12:22:58.917Z,11.60
2022-12-25T12:25:26.993Z,11.30
2022-12-25T12:28:04.958Z,11.40
2022-12-25T12:30:35.826Z,13.00
2022-12-25T12:33:07.462Z,12.50
2022-12-25T12:35:38.856Z,13.80
2022-12-25T12:38:18.140Z,12.30
2022-12-25T12:41:07.199Z,13.60
2022-12-25T12:43:48.283Z,11.50
2022-12-25T12:46:30.126Z,13.60
2022-12-25T12:49:33.063Z,12.80
2022-12-25T12:52:24.316Z,12.10
2022-12-25T12:55:01.994Z,13.10
2022-12-25T12:57:41.916Z,12.60
2022-12-25T13:00:21.342Z,12.10
2022-12-25T13:03:32.265Z,11.80
2022-12-25T13:06:15.554Z,10.10
2022-12-25T13:08:56.120Z,12.70
2022-12-25T13:11:27.263Z,15.50
2022-12-25T13:13:58.003Z,11.30
2022-12-25T13:16:34.324Z,15.10
2022-12-25T13:19:11.443Z,15.00
2022-12-25T13:21:38.517Z,13.50
2022-12-25T13:24:19.775Z,12.40
2022-12-25T13:26:46.716Z,14.20
2022-12-25T13:29:29.065Z,14.10
2022-12-25T13:31:58.186Z,14.90
2022-12-25T13:34:51.901Z,16.30
2022-12-25T13:37:23.548Z,12.80
2022-12-25T13:39:55.892Z,12.90
2022-12-25T13:42:27.579Z,15.70
2022-12-25T13:45:01.110Z,14.40
2022-12-25T13:47:54.727Z,12.80
2022-12-25T13:50:29.376Z,11.50
2022-12-25T13:53:11.994Z,12.70
2022-12-25T13:55:39.755Z,14.30
2022-12-25T13:58:08.115Z,15.60
2022-12-25T14:00:49.906Z,13.60
2022-12-25T14:03:39.315Z,13.30
2022-12-25T14:06:27.999Z,12.60
2022-12-25T14:08:58.468Z,11.30
2022-12-25T14:11:28.982Z,10.80
2022-12-25T14:14:04.360Z,13.60
2022-12-25T14:16:31.788Z,11.50
2022-12-25T14:19:03.748Z,13.70
2022-12-25T14:21:41.045Z,15.70
2022-12-25T14:24:15.677Z,16.10
2022-12-25T14:26:43.423Z,15.30
2022-12-25T14:29:18.128Z,19.40
2022-12-25T14:31:47.648Z,19.30
2022-12-25T14:34:23.734Z,18.30
2022-12-25T14:36:52.561Z,19.80
2022-12-25T14:39:38.056Z,21.40
2022-12-25T14:42:20.534Z,17.10
2022-12-25T14:45:28.457Z,15.90
2022-12-25T14:48:03.100Z,16.20
2022-12-25T14:50:51.276Z,12.30
2022-12-25T14:53:22.483Z,14.90
2022-12-25T14:55:54.115Z,16.90
2022-12-25T14:58:27.271Z,18.00
2022-12-25T15:00:58.774Z,15.10
2022-12-25T15:03:37.104Z,15.00
2022-12-25T15:06:22.740Z,14.40
2022-12-25T15:09:19.564Z,17.20
2022-12-25T15:11:57.977Z,16.50
2022-12-25T15:14:26.659Z,20.40
2022-12-25T15:16:58.302Z,23.20
2022-12-25T15:19:36.656Z,22.30
2022-12-25T15:22:04.868Z,24.80
2022-12-25T15:24:31.846Z,47.80
2022-12-25T15:27:00.581Z,71.20
2022-12-25T15:32:22.299Z,81.30
2022-12-25T15:34:50.286Z,99.40
2022-12-25T15:37:18.523Z,105.50
2022-12-25T15:39:46.651Z,99.40
2022-12-25T15:42:19.665Z,223.50
2022-12-25T15:44:46.944Z,266.40
2022-12-25T15:47:17.253Z,187.70
2022-12-25T15:49:44.200Z,146.20
2022-12-25T15:52:15.956Z,65.80
2022-12-25T15:54:43.206Z,46.90
2022-12-25T15:57:18.808Z,87.60
2022-12-25T15:59:45.805Z,87.30
2022-12-25T16:02:20.102Z,56.10
2022-12-25T16:04:47.499Z,70.60
2022-12-25T16:07:17.695Z,58.60
2022-12-25T16:09:45.436Z,58.00
2022-12-25T16:12:12.716Z,84.40
2022-12-25T16:14:39.662Z,71.00
2022-12-25T16:17:06.805Z,83.90
2022-12-25T16:19:34.071Z,98.60
2022-12-25T16:22:01.011Z,86.40
2022-12-25T16:24:27.948Z,97.00
2022-12-25T16:26:54.892Z,98.20
2022-12-25T16:29:21.940Z,86.90
2022-12-25T16:31:48.886Z,72.30
2022-12-25T16:34:15.832Z,59.30
2022-12-25T16:36:42.775Z,64.50
2022-12-25T16:39:09.719Z,68.50
2022-12-25T16:41:36.661Z,77.40
2022-12-25T16:44:12.310Z,72.80
2022-12-25T16:46:40.832Z,58.60
2022-12-25T16:49:08.897Z,49.10
2022-12-25T16:51:35.936Z,48.40
2022-12-25T16:54:02.960Z,45.00
2022-12-25T16:56:31.043Z,55.50
2022-12-25T16:58:59.820Z,65.20
2022-12-25T17:01:26.838Z,65.40
2022-12-25T17:03:54.191Z,61.60
2022-12-25T17:06:25.588Z,54.30
2022-12-25T17:08:57.445Z,56.80
2022-12-25T17:11:27.751Z,55.50
2022-12-25T17:13:55.617Z,60.40
2022-12-25T17:16:27.371Z,59.20
2022-12-25T17:18:56.512Z,50.20
2022-12-25T17:21:27.714Z,60.40
2022-12-25T17:24:01.691Z,56.60
2022-12-25T17:26:32.267Z,63.70
2022-12-25T17:28:59.617Z,62.10
2022-12-25T17:31:27.040Z,63.20
2022-12-25T17:33:54.316Z,65.40
2022-12-25T17:36:23.000Z,64.70
2022-12-25T17:38:50.319Z,68.70
2022-12-25T17:41:19.261Z,71.60
2022-12-25T17:43:47.257Z,52.50
2022-12-25T17:46:26.498Z,43.00
2022-12-25T17:48:56.472Z,57.60
2022-12-25T17:51:26.302Z,59.80
2022-12-25T17:53:57.111Z,58.00
2022-12-25T17:56:25.423Z,63.90
2022-12-25T17:59:00.220Z,70.90
2022-12-25T18:01:29.127Z,75.50
2022-12-25T18:03:56.431Z,79.00
2022-12-25T18:06:26.034Z,67.50
2022-12-25T18:08:58.450Z,87.50
2022-12-25T18:11:32.762Z,98.50
2022-12-25T18:14:04.898Z,72.70
2022-12-25T18:16:36.417Z,54.60
2022-12-25T18:19:04.253Z,49.40
2022-12-25T18:21:31.938Z,50.90
2022-12-25T18:23:59.058Z,47.00
2022-12-25T18:26:26.308Z,99.90
2022-12-25T18:28:53.355Z,100.80
2022-12-25T18:31:25.365Z,85.90
2022-12-25T18:33:53.052Z,88.20
2022-12-25T18:36:24.241Z,67.40
2022-12-25T18:38:53.310Z,70.60
2022-12-25T18:41:22.115Z,73.10
2022-12-25T18:43:53.218Z,52.80
2022-12-25T18:46:27.709Z,56.20
2022-12-25T18:48:56.613Z,65.40
2022-12-25T18:51:24.290Z,57.50
2022-12-25T18:53:51.787Z,83.40
2022-12-25T18:56:20.764Z,79.30
2022-12-25T18:58:49.365Z,68.70
2022-12-25T19:01:23.520Z,80.80
2022-12-25T19:03:51.882Z,97.20
2022-12-25T19:06:28.218Z,89.00
2022-12-25T19:08:56.519Z,98.60
2022-12-25T19:11:23.796Z,72.60
2022-12-25T19:13:51.015Z,78.90
2022-12-25T19:16:18.326Z,85.10
2022-12-25T19:18:46.013Z,67.50
2022-12-25T19:21:13.073Z,76.50
2022-12-25T19:23:40.483Z,79.00
2022-12-25T19:26:09.758Z,67.40
2022-12-25T19:28:38.973Z,64.70
2022-12-25T19:31:09.016Z,65.90
2022-12-25T19:33:41.203Z,88.50
2022-12-25T19:36:14.769Z,81.80
2022-12-25T19:38:42.984Z,71.30
2022-12-25T19:41:16.577Z,98.70
2022-12-25T19:43:47.827Z,71.00
2022-12-25T19:46:22.610Z,95.60
2022-12-25T19:48:50.243Z,78.40
2022-12-25T19:51:21.253Z,76.50
2022-12-25T19:53:48.720Z,91.60
2022-12-25T19:56:16.377Z,83.50
2022-12-25T19:58:43.776Z,82.60
2022-12-25T20:01:17.536Z,74.10
2022-12-25T20:03:48.030Z,97.50
2022-12-25T20:06:26.138Z,76.50
2022-12-25T20:08:57.746Z,99.20
2022-12-25T20:11:27.602Z,81.20
2022-12-25T20:13:55.709Z,90.10
2022-12-25T20:16:24.988Z,101.70
2022-12-25T20:18:53.399Z,79.20
2022-12-25T20:21:23.634Z,80.60
2022-12-25T20:23:53.321Z,84.20
2022-12-25T20:26:24.358Z,108.20
2022-12-25T20:28:52.209Z,75.80
2022-12-25T20:31:29.994Z,115.00
2022-12-25T20:34:00.757Z,102.00
2022-12-25T20:36:34.415Z,104.50
2022-12-25T20:39:04.058Z,90.20
2022-12-25T20:41:31.120Z,75.40
2022-12-25T20:43:58.480Z,68.20
2022-12-25T20:46:26.618Z,100.90
2022-12-25T20:48:54.404Z,160.90
2022-12-25T20:51:25.233Z,95.20
2022-12-25T20:53:53.800Z,69.00
2022-12-25T20:56:24.467Z,57.50
2022-12-25T20:59:00.009Z,68.00
2022-12-25T21:01:29.613Z,111.70
2022-12-25T21:03:58.139Z,94.30
2022-12-25T21:06:26.217Z,130.90
2022-12-25T21:08:53.309Z,130.80
2022-12-25T21:11:22.052Z,127.40
2022-12-25T21:13:49.594Z,106.40
2022-12-25T21:16:20.879Z,72.60
2022-12-25T21:18:50.303Z,112.10
2022-12-25T21:21:17.354Z,89.70
2022-12-25T21:23:45.704Z,97.30
2022-12-25T21:26:21.886Z,113.50
2022-12-25T21:28:51.193Z,91.40
2022-12-25T21:31:19.676Z,104.70
2022-12-25T21:33:53.133Z,93.70
2022-12-25T21:36:27.641Z,91.20
2022-12-25T21:39:56.401Z,77.50
2022-12-25T21:42:23.343Z,55.20
2022-12-25T21:44:50.711Z,72.60
2022-12-25T21:47:17.584Z,84.20
2022-12-25T21:50:03.021Z,89.90
2022-12-25T21:52:29.859Z,132.20
2022-12-25T21:54:56.680Z,121.70
2022-12-25T21:57:23.411Z,118.30
2022-12-25T21:59:50.183Z,97.80
2022-12-25T22:02:17.244Z,86.30
2022-12-25T22:04:44.197Z,127.20
2022-12-25T22:07:17.325Z,103.90
2022-12-25T22:09:49.875Z,105.10
2022-12-25T22:12:39.024Z,76.30
2022-12-25T22:15:09.771Z,70.60
2022-12-25T22:17:59.633Z,74.80
2022-12-25T22:20:34.988Z,78.50
2022-12-25T22:23:02.880Z,163.50
2022-12-25T22:25:29.892Z,139.70
2022-12-25T22:27:57.957Z,125.20
2022-12-25T22:30:28.279Z,90.40
2022-12-25T22:32:56.280Z,89.70
2022-12-25T22:35:23.836Z,68.10
2022-12-25T22:37:51.067Z,61.80
2022-12-25T22:40:19.910Z,61.40
2022-12-25T22:42:47.433Z,63.90
2022-12-25T22:45:14.955Z,65.90
2022-12-25T22:47:42.145Z,46.20
2022-12-25T22:50:10.530Z,40.60
2022-12-25T22:52:38.582Z,52.50
2022-12-25T22:55:07.887Z,43.70
2022-12-25T22:57:35.580Z,49.40
2022-12-25T23:00:03.366Z,63.40
2022-12-25T23:02:30.315Z,64.20
2022-12-25T23:04:57.235Z,63.00
2022-12-25T23:07:24.046Z,68.50
2022-12-25T23:09:52.067Z,77.00
2022-12-25T23:12:47.945Z,57.40
2022-12-25T23:15:14.788Z,60.20
2022-12-25T23:18:00.311Z,62.30
2022-12-25T23:20:45.863Z,106.10
2022-12-25T23:23:34.490Z,79.30
2022-12-25T23:26:08.123Z,83.10
2022-12-25T23:29:00.199Z,78.30
2022-12-25T23:31:35.881Z,64.90
2022-12-25T23:34:04.851Z,48.80
2022-12-25T23:36:32.133Z,32.20
2022-12-25T23:39:04.753Z,50.40
2022-12-25T23:41:34.067Z,29.10
2022-12-25T23:44:00.870Z,40.40
2022-12-25T23:46:27.661Z,43.30
2022-12-25T23:48:54.441Z,43.00
2022-12-25T23:51:21.289Z,48.90
2022-12-25T23:53:48.077Z,48.20
2022-12-25T23:56:15.009Z,48.30
2022-12-25T23:58:41.813Z,36.10
